Piedmont Triad International Airport
KGSO : now visible

Airfield :











YOU CAN JOIN US ON...

 
LOGIN :

Register | Disclaimer

   EN    FR    IT 

 









Legend :    VFR   Marginal VFR   IFR   Intensive IFR   Very Intensive IFR
Visi :
Ceiling :
>= 8 km
>= 3000ft
5 to 8 km
1000 to 3000 ft
1500m to 5 km
500 to 1000 ft
800 to 1500m
200 to 500 ft
< 800m
< 200 ft
Symbols :   Thunderstorms  Fog  Heavy snow  Heavy precipitations  Wind > 20 kt







- Airport Elevation : 925 ft
- IATA code : GSO


KGSO - Piedmont Triad International

CURRENT METAR :
  • 190854Z 23005KT 10SM FEW250 23/22 A3003 RMK AO2 SLP156 T02280222 50000

EXPIRED METARs :
  • 190754Z 20005KT 10SM CLR 23/22 A3004 RMK AO2 SLP158 T02330222
  • 190654Z 19005KT 10SM FEW250 24/22 A3003 RMK AO2 SLP156 T02390222

TAF KGSO
Valid from the 19 at 06:00 until the 20 at 06:00 UTC


190529Z 1906/2006 17003KT P6SM FEW250
FM191700 18006KT P6SM SCT040 SCT250
FM192200 20004KT P6SM SCT050 BKN150
PROB30 1922/2001 VRB18G32KT 3SM -TSRA BR SCT020 BKN040CB
No reported NOTAMs for that airfield.



MET'MAP, your aeronautical weather chart ! - Copyright ORBIFLY December 2007 - Disclaimer

ORBIFLY MET'MAP TEAM :

Programming & Development : Alexandra Zaïnal
Concept & Development : Baudouin d'Aumeries
Co-Development & Prog : Marc-Olivier Méhu
Technical & hardware support : Manuel Goepfert

Contact : metmap@orbifly.com




SOURCES & CREDITS :

   NOAA       Earth
Advisory